Time;durP1;ratioP1;P1;durP2;ratioP2;P2;SDS_P1;SDS_P2;PMS_P1;PMS_P2;Temp;Humidity;BMP_temperature;BMP_pressure;BME280_temperature;BME280_humidity;BME280_pressure;Samples;Min_cycle;Max_cycle;Signal;HPM_P1;HPM_P2
2023/04/27 00:01:48;;;;;;;19.52;8.00;;;;;;;3.40;100.00;100605.56;5033110;28;20389;-73
2023/04/27 00:04:15;;;;;;;18.75;7.72;;;;;;;3.43;100.00;100601.84;5033189;28;20475;-74
2023/04/27 00:06:41;;;;;;;22.67;8.75;;;;;;;3.43;100.00;100602.63;5033713;28;20048;-73
2023/04/27 00:09:07;;;;;;;18.33;8.52;;;;;;;3.40;100.00;100606.34;5032479;28;20031;-73
2023/04/27 00:11:33;;;;;;;21.70;9.75;;;;;;;3.39;100.00;100601.94;5032700;28;20105;-74
2023/04/27 00:13:59;;;;;;;19.45;10.05;;;;;;;3.31;100.00;100603.31;5032832;28;20381;-73
2023/04/27 00:16:27;;;;;;;23.38;11.65;;;;;;;3.23;100.00;100601.84;5032422;28;20032;-73
2023/04/27 00:18:54;;;;;;;19.17;10.95;;;;;;;3.20;100.00;100597.09;5033866;28;20032;-72
2023/04/27 00:21:20;;;;;;;22.55;12.25;;;;;;;3.21;100.00;100593.84;5033410;28;20029;-74
2023/04/27 00:23:47;;;;;;;26.27;13.73;;;;;;;3.15;100.00;100601.22;5015651;28;20022;-74
2023/04/27 00:26:13;;;;;;;24.98;15.10;;;;;;;3.16;100.00;100594.34;5033656;28;20052;-73
2023/04/27 00:28:39;;;;;;;29.05;13.45;;;;;;;3.16;100.00;100588.72;5032345;28;20022;-73
2023/04/27 00:31:06;;;;;;;33.50;16.02;;;;;;;3.18;100.00;100594.69;5031300;28;20041;-73
2023/04/27 00:33:32;;;;;;;24.48;13.60;;;;;;;3.12;100.00;100590.00;5033354;28;20029;-73
2023/04/27 00:36:03;;;;;;;29.73;14.00;;;;;;;3.10;100.00;100593.25;5015713;28;20042;-74
2023/04/27 00:38:29;;;;;;;21.88;13.88;;;;;;;3.08;100.00;100609.06;5033906;28;20029;-75
2023/04/27 00:41:06;;;;;;;19.88;11.93;;;;;;;2.98;100.00;100599.53;5033531;28;20531;-73
2023/04/27 00:43:32;;;;;;;20.05;9.85;;;;;;;2.98;100.00;100602.38;5031859;28;20052;-73
2023/04/27 00:45:59;;;;;;;14.35;7.90;;;;;;;2.97;100.00;100602.81;5034532;28;20037;-74
2023/04/27 00:48:26;;;;;;;15.52;7.45;;;;;;;3.01;100.00;100600.72;5047612;28;20053;-74
2023/04/27 00:50:53;;;;;;;13.20;7.25;;;;;;;3.00;100.00;100602.75;5053813;28;20029;-72
2023/04/27 00:53:21;;;;;;;21.13;7.85;;;;;;;2.95;100.00;100606.06;5048657;28;20029;-74
2023/04/27 00:55:47;;;;;;;11.02;6.38;;;;;;;2.89;100.00;100607.00;5045079;28;20029;-73
2023/04/27 00:58:14;;;;;;;16.23;7.20;;;;;;;2.96;100.00;100612.50;5048981;28;20484;-73
2023/04/27 01:00:41;;;;;;;18.15;7.85;;;;;;;2.98;100.00;100610.06;5047613;28;20030;-75
2023/04/27 01:03:08;;;;;;;9.68;6.10;;;;;;;2.94;100.00;100609.31;5037450;28;20041;-73
2023/04/27 01:05:35;;;;;;;12.93;6.60;;;;;;;2.90;100.00;100603.75;5035899;28;20038;-75
2023/04/27 01:08:06;;;;;;;15.32;6.78;;;;;;;2.85;100.00;100598.59;5036684;28;20415;-73
2023/04/27 01:10:32;;;;;;;17.52;9.23;;;;;;;2.86;100.00;100603.03;5017761;28;20052;-74
2023/04/27 01:12:57;;;;;;;14.07;7.03;;;;;;;2.89;100.00;100604.97;5035204;28;20490;-74
2023/04/27 01:15:23;;;;;;;13.20;6.15;;;;;;;2.89;100.00;100609.81;5036300;28;20470;-74
2023/04/27 01:17:48;;;;;;;19.90;7.63;;;;;;;2.91;100.00;100598.91;5034336;28;20037;-73
2023/04/27 01:20:32;;;;;;;11.85;6.72;;;;;;;2.86;100.00;100616.34;5035427;28;20103;-74
2023/04/27 01:22:58;;;;;;;17.23;6.63;;;;;;;2.84;100.00;100613.94;5035384;28;20445;-73
2023/04/27 01:25:24;;;;;;;15.75;6.95;;;;;;;2.74;100.00;100601.63;5034892;28;20037;-75
2023/04/27 01:27:53;;;;;;;11.88;6.68;;;;;;;2.81;100.00;100614.00;5035588;28;20364;-74
2023/04/27 01:30:27;;;;;;;11.90;6.22;;;;;;;2.77;100.00;100606.44;5035232;28;20385;-74
2023/04/27 01:32:59;;;;;;;13.75;6.47;;;;;;;2.74;100.00;100603.66;5035305;28;20160;-74
2023/04/27 01:35:24;;;;;;;;;;;;;;;2.71;100.00;100613.00;5034546;28;20101;-74
2023/04/27 01:37:56;;;;;;;11.50;6.47;;;;;;;2.76;100.00;100609.66;5035781;28;19932;-74
2023/04/27 01:40:22;;;;;;;15.88;6.65;;;;;;;2.71;100.00;100613.00;5033267;28;20029;-74
2023/04/27 01:42:47;;;;;;;13.23;6.50;;;;;;;2.70;100.00;100614.22;5035059;28;20095;-74
2023/04/27 01:45:15;;;;;;;11.90;5.93;;;;;;;2.58;100.00;100609.22;5036362;28;20112;-75
2023/04/27 01:47:42;;;;;;;10.40;6.35;;;;;;;2.55;100.00;100613.66;5018126;28;20033;-75
2023/04/27 01:50:07;;;;;;;13.20;6.90;;;;;;;2.56;100.00;100617.28;5033929;28;20048;-72
2023/04/27 01:52:35;;;;;;;16.60;6.45;;;;;;;2.61;100.00;100613.97;5034997;28;20025;-75
2023/04/27 01:55:02;;;;;;;10.10;5.97;;;;;;;2.60;100.00;100618.03;5035056;28;20029;-73
2023/04/27 01:57:30;;;;;;;11.05;6.45;;;;;;;2.65;100.00;100623.97;5017086;28;20340;-75
2023/04/27 01:59:55;;;;;;;13.85;5.90;;;;;;;2.68;100.00;100625.16;5033265;28;20430;-73
2023/04/27 02:02:22;;;;;;;16.00;6.60;;;;;;;2.62;100.00;100616.38;5035145;28;20490;-74
2023/04/27 02:04:47;;;;;;;14.10;6.40;;;;;;;2.64;100.00;100625.19;5033956;28;20025;-73
2023/04/27 02:07:13;;;;;;;12.38;6.38;;;;;;;2.66;100.00;100621.94;5033916;28;20420;-73
2023/04/27 02:09:39;;;;;;;13.65;7.03;;;;;;;2.67;100.00;100621.53;5034686;28;20051;-73
2023/04/27 02:12:06;;;;;;;13.07;6.65;;;;;;;2.69;100.00;100621.06;5034914;28;20026;-74
2023/04/27 02:14:33;;;;;;;15.25;6.55;;;;;;;2.58;100.00;100623.31;5033453;28;20045;-74
2023/04/27 02:17:00;;;;;;;12.15;6.63;;;;;;;2.58;100.00;100624.13;5034829;28;20029;-73
2023/04/27 02:19:26;;;;;;;11.55;7.22;;;;;;;2.62;100.00;100624.03;5016990;28;20035;-74
2023/04/27 02:21:52;;;;;;;11.88;6.68;;;;;;;2.62;100.00;100622.03;5033206;28;20040;-74
2023/04/27 02:24:19;;;;;;;11.77;6.60;;;;;;;2.58;100.00;100626.13;5034366;28;20037;-74
2023/04/27 02:26:45;;;;;;;13.60;6.38;;;;;;;2.54;100.00;100620.53;5033241;28;20116;-74
2023/04/27 02:29:10;;;;;;;12.88;6.75;;;;;;;2.59;100.00;100630.53;5033161;28;20044;-73
2023/04/27 02:31:37;;;;;;;12.02;5.90;;;;;;;2.57;100.00;100630.19;5034734;28;20076;-74
2023/04/27 02:34:04;;;;;;;19.48;7.40;;;;;;;2.53;100.00;100633.06;5032950;28;20475;-75
2023/04/27 02:36:31;;;;;;;25.85;7.35;;;;;;;2.48;100.00;100632.75;5033385;28;20097;-74
2023/04/27 02:38:57;;;;;;;12.38;6.30;;;;;;;2.48;100.00;100638.41;5033866;28;20041;-74
2023/04/27 02:41:26;;;;;;;17.83;7.78;;;;;;;2.41;100.00;100638.50;5016562;28;20017;-77
2023/04/27 02:43:52;;;;;;;11.63;6.15;;;;;;;2.40;100.00;100634.88;5034128;28;20028;-74
2023/04/27 02:46:20;;;;;;;13.93;7.07;;;;;;;2.38;100.00;100630.91;5034266;28;20022;-73
2023/04/27 02:48:46;;;;;;;9.35;6.78;;;;;;;2.35;100.00;100630.53;4908926;28;3573060;-73
2023/04/27 02:51:12;;;;;;;12.20;6.30;;;;;;;2.29;100.00;100635.06;5035275;28;20033;-74
2023/04/27 02:53:40;;;;;;;10.75;6.38;;;;;;;2.30;100.00;100633.03;5035020;28;20056;-73
2023/04/27 02:56:06;;;;;;;20.50;6.75;;;;;;;2.25;100.00;100636.34;5033424;28;20029;-73
2023/04/27 02:58:32;;;;;;;12.00;7.10;;;;;;;2.25;100.00;100637.16;5035354;28;20040;-74
2023/04/27 03:00:57;;;;;;;11.30;6.03;;;;;;;2.25;100.00;100634.34;5033752;28;20382;-74
2023/04/27 03:03:23;;;;;;;13.13;6.15;;;;;;;2.22;100.00;100634.41;5035093;28;20045;-74
2023/04/27 03:05:50;;;;;;;13.73;7.25;;;;;;;2.25;100.00;100637.16;5034625;28;20057;-74
2023/04/27 03:08:16;;;;;;;12.23;6.40;;;;;;;2.22;100.00;100634.41;5033577;28;20414;-74
2023/04/27 03:10:44;;;;;;;20.52;7.05;;;;;;;2.18;100.00;100642.91;5033270;28;20087;-73
2023/04/27 03:13:09;;;;;;;10.27;6.13;;;;;;;2.15;100.00;100649.38;5034517;28;20030;-74
2023/04/27 03:15:36;;;;;;;11.77;5.80;;;;;;;2.17;100.00;100641.31;5033434;28;20029;-74
2023/04/27 03:18:02;;;;;;;11.65;6.50;;;;;;;2.19;100.00;100641.66;5032899;28;20052;-74
2023/04/27 03:20:40;;;;;;;10.77;5.55;;;;;;;2.18;100.00;100640.09;5034755;28;20025;-73
2023/04/27 03:23:07;;;;;;;20.95;6.93;;;;;;;2.14;100.00;100642.19;5034571;28;20017;-74
2023/04/27 03:25:32;;;;;;;16.38;6.22;;;;;;;2.13;100.00;100639.78;5033464;28;20103;-74
2023/04/27 03:27:57;;;;;;;11.18;6.38;;;;;;;2.11;100.00;100631.75;5034300;28;20088;-72
2023/04/27 03:30:23;;;;;;;18.63;6.75;;;;;;;2.09;100.00;100644.69;5032170;28;20030;-75
2023/04/27 03:32:49;;;;;;;10.80;6.00;;;;;;;2.08;100.00;100637.44;5032992;28;20036;-74
2023/04/27 03:35:15;;;;;;;19.23;6.38;;;;;;;2.05;100.00;100644.72;5034103;28;20553;-74
2023/04/27 03:37:45;;;;;;;14.23;6.30;;;;;;;2.05;100.00;100643.91;5033126;28;20105;-78
2023/04/27 03:40:11;;;;;;;13.50;7.18;;;;;;;2.00;100.00;100650.03;5015650;28;20025;-78
2023/04/27 03:42:37;;;;;;;12.68;6.80;;;;;;;2.02;100.00;100658.88;5034913;28;20029;-76
2023/04/27 03:45:04;;;;;;;16.35;7.20;;;;;;;2.07;100.00;100661.22;5033753;28;20045;-76
2023/04/27 03:47:30;;;;;;;18.65;6.47;;;;;;;2.07;100.00;100669.66;5034449;28;20090;-76
2023/04/27 03:49:56;;;;;;;13.90;6.80;;;;;;;2.11;100.00;100667.59;5033857;28;20132;-77
2023/04/27 03:52:21;;;;;;;13.27;6.57;;;;;;;2.17;100.00;100668.72;5032576;28;20037;-73
2023/04/27 03:54:47;;;;;;;14.25;6.35;;;;;;;2.20;100.00;100670.66;5016182;28;20044;-73
2023/04/27 03:57:13;;;;;;;13.23;6.68;;;;;;;2.27;100.00;100673.38;5033852;28;20154;-75
2023/04/27 03:59:40;;;;;;;17.02;7.10;;;;;;;2.34;100.00;100674.06;5030567;28;20037;-74
2023/04/27 04:02:08;;;;;;;15.32;7.57;;;;;;;2.38;100.00;100676.03;5032624;28;20467;-75
2023/04/27 04:04:33;;;;;;;15.63;7.22;;;;;;;2.43;100.00;100667.09;5033424;28;20037;-74
2023/04/27 04:07:00;;;;;;;14.45;6.25;;;;;;;2.51;100.00;100677.81;5032635;28;20041;-73
2023/04/27 04:09:27;;;;;;;12.23;6.90;;;;;;;2.54;100.00;100676.19;5032327;28;20026;-75
2023/04/27 04:11:52;;;;;;;9.88;6.85;;;;;;;2.63;100.00;100685.69;5033914;28;20029;-75
2023/04/27 04:14:17;;;;;;;16.45;7.22;;;;;;;2.67;100.00;100688.44;5033630;28;20386;-74
2023/04/27 04:16:44;;;;;;;13.82;7.20;;;;;;;2.84;100.00;100686.50;5033460;28;20033;-74
2023/04/27 04:19:09;;;;;;;11.90;6.22;;;;;;;2.98;100.00;100683.44;5030596;28;20045;-74
2023/04/27 04:21:36;;;;;;;11.93;6.30;;;;;;;3.13;100.00;100690.41;5033725;28;20049;-74
2023/04/27 04:24:01;;;;;;;12.38;6.47;;;;;;;3.23;100.00;100693.00;5032021;28;20033;-75
2023/04/27 04:26:29;;;;;;;17.33;6.60;;;;;;;3.39;100.00;100685.84;5033420;28;20032;-73
2023/04/27 04:28:56;;;;;;;10.93;6.75;;;;;;;3.66;100.00;100689.34;5033398;28;20076;-74
2023/04/27 04:31:22;;;;;;;13.68;6.28;;;;;;;3.90;100.00;100705.00;5032637;28;20033;-73
2023/04/27 04:33:53;;;;;;;15.60;6.72;;;;;;;3.98;100.00;100708.44;5033363;28;20025;-74
2023/04/27 04:36:20;;;;;;;12.63;6.00;;;;;;;4.15;100.00;100714.94;5033212;28;20025;-75
2023/04/27 04:38:47;;;;;;;9.10;6.43;;;;;;;4.27;100.00;100705.75;4999272;28;20041;-74
2023/04/27 04:41:12;;;;;;;11.82;6.75;;;;;;;4.46;100.00;100713.41;5032039;28;20021;-75
2023/04/27 04:43:43;;;;;;;12.15;6.13;;;;;;;4.61;100.00;100713.84;5031654;28;20038;-75
2023/04/27 04:46:12;;;;;;;11.68;6.05;;;;;;;4.65;100.00;100715.34;5030857;28;20040;-75
2023/04/27 04:48:39;;;;;;;17.75;6.53;;;;;;;4.65;100.00;100715.34;5029932;28;20128;-74
2023/04/27 04:51:06;;;;;;;13.70;5.97;;;;;;;4.87;100.00;100724.88;5032758;28;20076;-75
2023/04/27 04:53:32;;;;;;;8.80;5.22;;;;;;;4.93;100.00;100725.16;5032645;28;20057;-74
2023/04/27 04:56:07;;;;;;;11.35;5.25;;;;;;;4.95;100.00;100725.53;5032968;28;20052;-74
2023/04/27 04:58:34;;;;;;;10.40;5.00;;;;;;;5.29;100.00;100728.66;5034345;28;20449;-73
2023/04/27 05:01:00;;;;;;;15.05;7.53;;;;;;;5.55;100.00;100725.91;5040746;28;20056;-74
2023/04/27 05:03:27;;;;;;;14.02;5.43;;;;;;;5.66;100.00;100732.84;5042462;28;20056;-76
2023/04/27 05:05:53;;;;;;;13.25;4.68;;;;;;;5.86;100.00;100735.53;5044195;28;20029;-74
2023/04/27 05:08:19;;;;;;;15.07;5.63;;;;;;;6.00;100.00;100732.25;5044680;28;20525;-80
2023/04/27 05:10:51;;;;;;;10.68;5.05;;;;;;;6.18;100.00;100745.94;5041584;28;20041;-77
2023/04/27 05:13:16;;;;;;;12.05;6.28;;;;;;;6.15;100.00;100736.25;5023389;28;20089;-82
2023/04/27 05:15:43;;;;;;;6.55;4.30;;;;;;;6.30;100.00;100747.19;5037000;28;20080;-82
2023/04/27 05:18:09;;;;;;;8.20;5.07;;;;;;;6.45;100.00;100748.34;5034392;28;20041;-82
2023/04/27 05:20:43;;;;;;;9.07;5.28;;;;;;;6.73;100.00;100752.34;5033978;28;20054;-82
2023/04/27 05:23:10;;;;;;;10.90;5.10;;;;;;;6.77;97.73;100750.97;5033905;28;20501;-82
2023/04/27 05:25:40;;;;;;;15.60;5.53;;;;;;;6.62;96.81;100747.78;5033241;28;20072;-83
2023/04/27 05:28:08;;;;;;;12.25;5.40;;;;;;;6.81;97.40;100754.47;5033196;28;20479;-81
2023/04/27 05:30:35;;;;;;;14.45;6.35;;;;;;;7.04;96.65;100758.97;5033743;28;20036;-81
2023/04/27 05:33:02;;;;;;;13.55;5.75;;;;;;;7.27;94.49;100758.59;5033062;28;20519;-83
2023/04/27 05:35:29;;;;;;;9.05;5.28;;;;;;;7.61;93.38;100759.84;5051464;28;20036;-81
2023/04/27 05:37:55;;;;;;;9.18;5.30;;;;;;;7.66;90.34;100757.22;5058143;28;20033;-81
2023/04/27 05:40:21;;;;;;;9.90;5.05;;;;;;;7.71;89.89;100759.47;5060694;28;20070;-78
2023/04/27 05:42:48;;;;;;;12.65;5.22;;;;;;;7.93;90.21;100759.44;5040769;28;20030;-80
2023/04/27 05:45:14;;;;;;;11.02;5.40;;;;;;;8.19;87.88;100768.66;5040836;28;20386;-83
2023/04/27 05:47:42;;;;;;;14.13;6.38;;;;;;;8.52;85.63;100766.94;5060880;28;20028;-81
2023/04/27 05:50:08;;;;;;;20.13;5.25;;;;;;;8.76;83.23;100770.03;5059071;28;20064;-80
2023/04/27 05:52:33;;;;;;;12.13;4.88;;;;;;;8.89;80.66;100767.09;5057492;28;20025;-81
2023/04/27 05:54:59;;;;;;;14.50;5.53;;;;;;;9.31;81.76;100775.91;5053026;28;20232;-82
2023/04/27 05:57:27;;;;;;;9.93;4.60;;;;;;;9.67;77.81;100773.88;5055988;28;20041;-81
2023/04/27 05:59:55;;;;;;;9.75;4.88;;;;;;;10.06;74.78;100772.16;5056591;28;20362;-81
2023/04/27 06:02:30;;;;;;;14.65;5.55;;;;;;;10.48;71.30;100791.44;5055476;28;20040;-81
2023/04/27 06:04:56;;;;;;;15.10;4.93;;;;;;;10.55;64.56;100796.78;5055205;28;20113;-80
2023/04/27 06:07:23;;;;;;;15.15;4.80;;;;;;;10.77;63.42;100793.72;5041988;28;20025;-81
2023/04/27 06:09:49;;;;;;;9.50;4.28;;;;;;;11.13;63.82;100789.91;5035076;28;20104;-77
2023/04/27 06:12:16;;;;;;;9.98;4.32;;;;;;;11.41;61.87;100791.34;5036542;28;20094;-80
2023/04/27 06:14:45;;;;;;;15.98;4.78;;;;;;;11.43;59.88;100803.06;5036328;28;20029;-79
2023/04/27 06:17:11;;;;;;;8.40;4.45;;;;;;;11.75;59.51;100799.34;5036257;28;20471;-79
2023/04/27 06:19:38;;;;;;;9.98;4.65;;;;;;;12.16;58.00;100793.88;5034332;28;20440;-82
2023/04/27 06:22:06;;;;;;;7.78;4.15;;;;;;;12.16;54.23;100793.88;5035395;28;20454;-81
2023/04/27 06:24:35;;;;;;;12.55;5.10;;;;;;;12.42;55.38;100799.88;5035826;28;20589;-85
2023/04/27 06:27:01;;;;;;;10.20;4.60;;;;;;;12.57;52.63;100795.72;5036534;28;20536;-84
2023/04/27 06:29:27;;;;;;;15.77;4.93;;;;;;;12.41;50.95;100801.94;5018709;28;20069;-83
2023/04/27 06:31:52;;;;;;;8.35;4.63;;;;;;;12.54;50.97;100799.59;5037252;28;20131;-85
2023/04/27 06:34:21;;;;;;;9.02;4.40;;;;;;;12.50;50.08;100795.34;5035355;28;20057;-85
2023/04/27 06:36:47;;;;;;;8.85;4.47;;;;;;;12.58;49.36;100808.78;5037148;28;20057;-82
2023/04/27 06:39:13;;;;;;;12.55;5.03;;;;;;;12.83;50.86;100809.44;5030521;28;20045;-76
2023/04/27 06:41:39;;;;;;;13.07;4.35;;;;;;;14.03;50.93;100804.38;5034662;28;20030;-75
2023/04/27 06:44:05;;;;;;;9.00;4.10;;;;;;;15.55;45.37;100817.50;5026048;28;20108;-76
2023/04/27 06:46:32;;;;;;;9.32;4.47;;;;;;;16.75;42.51;100803.22;5033926;28;20494;-80
2023/04/27 06:48:58;;;;;;;7.65;4.53;;;;;;;17.38;40.68;100808.44;5034446;28;20037;-79
2023/04/27 06:51:24;;;;;;;8.27;4.20;;;;;;;17.82;39.74;100804.63;5020915;28;20456;-79
2023/04/27 06:53:51;;;;;;;9.05;3.88;;;;;;;18.57;38.99;100800.28;5016631;28;20025;-78
2023/04/27 06:56:21;;;;;;;7.78;4.05;;;;;;;19.66;36.75;100795.31;5015391;28;20022;-78
2023/04/27 06:58:46;;;;;;;8.77;4.10;;;;;;;20.36;35.41;100797.06;5015427;28;20430;-77
2023/04/27 07:01:13;;;;;;;6.47;3.67;;;;;;;21.33;34.72;100781.25;5014690;28;20125;-79
2023/04/27 07:03:38;;;;;;;5.90;3.88;;;;;;;22.04;32.19;100778.22;5014948;28;20041;-78
2023/04/27 07:06:05;;;;;;;5.82;3.90;;;;;;;22.57;30.75;100783.16;5014965;28;20041;-75
2023/04/27 07:08:31;;;;;;;10.32;4.25;;;;;;;22.86;29.40;100778.97;5027872;28;20033;-78
2023/04/27 07:10:57;;;;;;;7.53;3.70;;;;;;;24.49;28.37;100780.47;5034917;28;20025;-78
2023/04/27 07:13:22;;;;;;;13.98;3.90;;;;;;;25.25;25.83;100765.94;5034695;28;20029;-78
2023/04/27 07:15:56;;;;;;;10.90;3.83;;;;;;;25.86;25.85;100762.94;5034479;28;20459;-78
2023/04/27 07:18:23;;;;;;;10.52;4.13;;;;;;;26.42;25.46;100755.69;5032103;28;20065;-79
2023/04/27 07:20:51;;;;;;;7.28;3.45;;;;;;;26.74;25.01;100749.84;5034766;28;20475;-78
2023/04/27 07:23:17;;;;;;;6.07;2.92;;;;;;;27.31;25.33;100754.88;5034599;28;20467;-78
2023/04/27 07:25:44;;;;;;;10.68;3.15;;;;;;;28.15;23.87;100756.91;5034247;28;20029;-79
2023/04/27 07:28:11;;;;;;;4.60;3.00;;;;;;;29.30;23.63;100751.69;5032733;28;20029;-79
2023/04/27 07:30:37;;;;;;;5.53;2.40;;;;;;;30.83;20.99;100747.97;5032476;28;20115;-78
2023/04/27 07:33:12;;;;;;;7.28;2.75;;;;;;;31.46;18.73;100746.56;5033232;28;20033;-78
2023/04/27 07:35:38;;;;;;;6.65;2.63;;;;;;;30.13;19.60;100729.47;5034136;28;20546;-79
2023/04/27 07:38:04;;;;;;;6.00;2.95;;;;;;;29.27;20.94;100736.03;5034151;28;20105;-78
2023/04/27 07:40:31;;;;;;;7.80;3.35;;;;;;;29.45;21.72;100736.69;5032794;28;20057;-78
2023/04/27 07:42:57;;;;;;;10.82;3.60;;;;;;;31.26;21.79;100737.06;5032523;28;20038;-79
2023/04/27 07:45:30;;;;;;;7.80;3.15;;;;;;;32.17;18.76;100730.78;5016064;28;20540;-79
2023/04/27 07:47:59;;;;;;;6.18;2.65;;;;;;;32.41;19.15;100725.75;5032289;28;20033;-78
2023/04/27 07:50:25;;;;;;;6.10;2.38;;;;;;;32.92;17.33;100732.81;5016066;28;20076;-78
2023/04/27 07:52:53;;;;;;;4.13;2.25;;;;;;;33.35;17.56;100733.31;5032805;28;20037;-78
2023/04/27 07:55:27;;;;;;;5.75;2.17;;;;;;;33.02;17.51;100713.50;5033093;28;20041;-79
2023/04/27 07:57:55;;;;;;;13.70;2.95;;;;;;;32.40;17.74;100716.09;5033458;28;20033;-78
2023/04/27 08:00:24;;;;;;;14.07;3.85;;;;;;;31.40;17.77;100732.16;5032270;28;20137;-78
2023/04/27 08:02:52;;;;;;;7.80;2.40;;;;;;;30.80;18.30;100722.66;5032600;28;20395;-78
2023/04/27 08:05:18;;;;;;;4.70;2.00;;;;;;;30.48;18.83;100726.91;5033677;28;20061;-78
2023/04/27 08:07:45;;;;;;;4.05;2.33;;;;;;;29.98;18.69;100726.03;5033323;28;20068;-77
2023/04/27 08:10:20;;;;;;;5.18;1.98;;;;;;;29.37;18.71;100736.06;5033685;28;20108;-79
2023/04/27 08:12:45;;;;;;;8.25;2.25;;;;;;;28.50;20.07;100729.03;5034031;28;20390;-78
2023/04/27 08:15:13;;;;;;;4.70;1.77;;;;;;;28.02;19.71;100734.56;5033767;28;20033;-80
2023/04/27 08:17:40;;;;;;;5.63;2.20;;;;;;;27.89;20.71;100741.59;5030838;28;20041;-81
2023/04/27 08:20:10;;;;;;;7.22;2.45;;;;;;;27.70;20.59;100732.53;5033530;28;20032;-81
2023/04/27 08:22:36;;;;;;;6.38;2.60;;;;;;;27.16;20.76;100741.09;5033103;28;20829;-78
2023/04/27 08:25:05;;;;;;;6.05;2.20;;;;;;;26.95;22.49;100742.84;5015827;28;20045;-81
2023/04/27 08:27:32;;;;;;;6.43;1.75;;;;;;;26.53;21.71;100740.56;5033483;28;20051;-79
2023/04/27 08:29:59;;;;;;;6.32;1.58;;;;;;;25.36;21.79;100733.38;5033564;28;20036;-79
2023/04/27 08:32:28;;;;;;;3.38;1.50;;;;;;;24.82;22.28;100751.47;5033523;28;20022;-80
2023/04/27 08:34:54;;;;;;;3.72;1.80;;;;;;;24.17;23.43;100742.16;5033840;28;20025;-80
2023/04/27 08:37:19;;;;;;;4.47;2.05;;;;;;;24.77;23.21;100752.44;5032454;28;20100;-80
2023/04/27 08:39:46;;;;;;;6.13;2.10;;;;;;;25.65;23.56;100754.41;5033488;28;20071;-81
2023/04/27 08:42:14;;;;;;;3.63;2.17;;;;;;;25.96;23.25;100754.31;5033158;28;20025;-79
2023/04/27 08:44:41;;;;;;;6.53;2.72;;;;;;;25.88;22.98;100754.31;5032775;28;20033;-79
2023/04/27 08:47:09;;;;;;;5.22;2.85;;;;;;;26.01;23.50;100748.25;5033043;28;20066;-80
2023/04/27 08:49:37;;;;;;;5.57;2.75;;;;;;;24.92;23.37;100767.91;5032221;28;20494;-80
2023/04/27 08:52:10;;;;;;;3.65;2.47;;;;;;;25.25;23.54;100759.31;5033118;28;20108;-80
2023/04/27 08:54:36;;;;;;;8.90;3.40;;;;;;;25.06;23.38;100751.72;5033182;28;20033;-78
2023/04/27 08:57:08;;;;;;;9.70;3.85;;;;;;;24.96;23.84;100755.81;5031907;28;20033;-78
2023/04/27 08:59:35;;;;;;;7.40;4.13;;;;;;;25.06;23.92;100765.56;5033142;28;20532;-78
2023/04/27 09:02:00;;;;;;;9.68;3.53;;;;;;;25.22;24.10;100760.50;5013341;28;20025;-78
2023/04/27 09:04:42;;;;;;;11.15;3.85;;;;;;;25.26;23.99;100764.59;5031439;28;20395;-79
2023/04/27 09:07:17;;;;;;;7.18;3.63;;;;;;;24.55;24.35;100760.59;5033399;28;20036;-79
2023/04/27 09:09:43;;;;;;;6.75;3.28;;;;;;;23.01;25.12;100761.66;5035240;28;20057;-79
2023/04/27 09:12:19;;;;;;;9.05;3.67;;;;;;;21.64;26.63;100760.00;5036152;28;20180;-80
2023/04/27 09:15:02;;;;;;;8.02;3.10;;;;;;;19.89;27.79;100763.94;5036642;28;20064;-80
2023/04/27 09:17:29;;;;;;;11.65;3.63;;;;;;;18.55;29.42;100759.53;5038050;28;20032;-78
2023/04/27 09:20:12;;;;;;;4.97;3.38;;;;;;;17.88;30.17;100775.69;5051656;28;20033;-83
2023/04/27 09:22:45;;;;;;;8.60;3.35;;;;;;;17.83;31.15;100775.16;5056889;28;20025;-84
2023/04/27 09:25:22;;;;;;;12.55;4.40;;;;;;;18.32;31.04;100774.69;5057849;28;20062;-84
2023/04/27 09:27:50;;;;;;;9.00;4.28;;;;;;;18.44;30.74;100771.19;5057300;28;20087;-84
2023/04/27 09:30:21;;;;;;;5.90;2.90;;;;;;;18.04;31.92;100760.34;5055314;28;20025;-82
2023/04/27 09:32:51;;;;;;;9.10;3.40;;;;;;;17.31;32.74;100777.16;5055582;28;20022;-79
2023/04/27 09:35:31;;;;;;;7.88;3.05;;;;;;;17.04;33.38;100775.91;5048974;28;20474;-85
2023/04/27 09:37:59;;;;;;;7.20;3.25;;;;;;;16.65;33.82;100783.81;5045029;28;20057;-78
2023/04/27 09:40:28;;;;;;;11.20;3.15;;;;;;;16.25;33.33;100779.28;5026844;28;20033;-84
2023/04/27 09:43:00;;;;;;;10.98;3.10;;;;;;;15.89;34.03;100783.88;5043168;28;20030;-81
2023/04/27 09:45:27;;;;;;;10.80;3.00;;;;;;;15.75;34.34;100787.75;5042875;28;20021;-77
2023/04/27 09:47:54;;;;;;;11.23;3.75;;;;;;;15.71;34.24;100787.22;5040223;28;20033;-80
2023/04/27 09:50:21;;;;;;;10.60;3.53;;;;;;;15.78;34.94;100790.38;5041630;28;20068;-81
2023/04/27 09:52:47;;;;;;;10.05;3.38;;;;;;;15.93;35.09;100782.31;5041446;28;20424;-81
2023/04/27 09:55:18;;;;;;;7.72;3.22;;;;;;;16.05;36.33;100786.81;5039699;28;20503;-81
2023/04/27 09:58:05;;;;;;;10.52;3.63;;;;;;;16.20;35.63;100789.47;5039609;28;20109;-80
2023/04/27 10:01:07;;;;;;;8.13;4.03;;;;;;;16.31;37.98;100780.84;5039396;28;20029;-79
2023/04/27 10:04:04;;;;;;;5.82;3.55;;;;;;;16.43;36.53;100790.31;4977939;28;20034;-77
2023/04/27 10:06:51;;;;;;;7.45;3.58;;;;;;;16.01;37.60;100791.25;5037655;28;20021;-79
2023/04/27 10:09:23;;;;;;;8.77;3.42;;;;;;;15.52;38.54;100802.00;5038185;28;20474;-77
2023/04/27 10:11:51;;;;;;;8.55;4.43;;;;;;;15.21;44.52;100794.25;5038000;28;20097;-78
2023/04/27 10:14:22;;;;;;;6.18;3.78;;;;;;;15.10;39.49;100799.13;5036257;28;20033;-82
2023/04/27 10:16:55;;;;;;;7.80;3.92;;;;;;;14.79;38.51;100805.69;5038565;28;20030;-79
2023/04/27 10:19:30;;;;;;;10.65;4.22;;;;;;;14.61;38.33;100798.22;5036547;28;20040;-80
2023/04/27 10:22:04;;;;;;;6.95;3.95;;;;;;;14.34;38.21;100798.69;5036982;28;20032;-78
2023/04/27 10:24:43;;;;;;;8.98;4.30;;;;;;;13.91;39.66;100797.72;5037494;28;20108;-78
2023/04/27 10:27:25;;;;;;;10.57;4.43;;;;;;;13.30;41.93;100800.53;5037203;28;20025;-81
2023/04/27 10:29:51;;;;;;;10.90;4.45;;;;;;;13.25;42.20;100800.44;5037667;28;20021;-83
2023/04/27 10:32:25;;;;;;;8.20;4.57;;;;;;;13.46;43.65;100796.31;5035428;28;20447;-79
2023/04/27 10:35:08;;;;;;;8.45;4.30;;;;;;;13.24;43.92;100805.41;5035583;28;20029;-80
2023/04/27 10:37:42;;;;;;;6.80;4.40;;;;;;;13.29;44.65;100809.66;5019180;28;20021;-77
2023/04/27 10:40:18;;;;;;;8.10;4.10;;;;;;;13.83;42.98;100803.13;5035573;28;20075;-78
2023/04/27 10:42:48;;;;;;;12.15;4.40;;;;;;;14.05;41.99;100807.53;5033958;28;20475;-79
2023/04/27 10:45:33;;;;;;;6.90;4.50;;;;;;;14.01;42.33;100806.97;5034991;28;20048;-79
2023/04/27 10:48:00;;;;;;;5.82;3.90;;;;;;;13.76;42.61;100800.66;5036287;28;20048;-79
2023/04/27 10:50:26;;;;;;;11.82;4.57;;;;;;;13.72;44.01;100800.09;5034837;28;20033;-77
2023/04/27 10:52:52;;;;;;;6.28;4.20;;;;;;;13.98;43.94;100814.53;5035571;28;20371;-78
2023/04/27 10:55:21;;;;;;;8.35;4.10;;;;;;;14.17;41.34;100815.00;5035578;28;20033;-78
2023/04/27 10:57:52;;;;;;;6.82;3.55;;;;;;;14.47;41.37;100816.38;5034170;28;20025;-80
2023/04/27 11:00:31;;;;;;;7.85;4.07;;;;;;;15.04;39.92;100809.81;5036311;28;20029;-80
2023/04/27 11:03:21;;;;;;;6.72;4.20;;;;;;;15.34;40.05;100798.75;5035528;28;20087;-80
2023/04/27 11:05:59;;;;;;;5.78;4.18;;;;;;;15.69;40.10;100799.25;5035368;28;20033;-79
2023/04/27 11:08:24;;;;;;;10.95;5.18;;;;;;;15.38;38.54;100797.22;5017950;28;20067;-73
2023/04/27 11:10:51;;;;;;;11.20;4.78;;;;;;;15.43;39.10;100795.66;5034577;28;20107;-76
2023/04/27 11:13:22;;;;;;;7.32;4.53;;;;;;;15.61;38.61;100778.00;5019817;28;20037;-81
2023/04/27 11:15:57;;;;;;;5.68;3.08;;;;;;;15.16;35.98;100788.44;5037953;28;20356;-81
2023/04/27 11:18:27;;;;;;;6.20;3.33;;;;;;;14.89;35.25;100801.31;5034809;28;20041;-78
2023/04/27 11:21:05;;;;;;;4.13;3.17;;;;;;;14.89;35.64;100775.44;5033679;28;20086;-78
2023/04/27 11:23:39;;;;;;;6.47;3.53;;;;;;;15.33;35.30;100794.28;5034294;28;20056;-76
2023/04/27 11:26:18;;;;;;;11.55;3.50;;;;;;;15.59;34.14;100806.53;5035224;28;20030;-78
2023/04/27 11:29:14;;;;;;;8.95;3.85;;;;;;;15.26;34.20;100796.38;5035520;28;20029;-80